sensor_id;sensor_type;location;lat;lon;timestamp;P1;durP1;ratioP1;P2;durP2;ratioP2
13708;SDS011;54933;51.908;7.730;2022-10-16T00:00:16;0.63;;;0.63;;
13708;SDS011;54933;51.908;7.730;2022-10-16T00:02:41;0.50;;;0.50;;
13708;SDS011;54933;51.908;7.730;2022-10-16T00:05:06;0.77;;;0.40;;
13708;SDS011;54933;51.908;7.730;2022-10-16T00:07:32;0.63;;;0.63;;
13708;SDS011;54933;51.908;7.730;2022-10-16T00:09:57;0.40;;;0.40;;
13708;SDS011;54933;51.908;7.730;2022-10-16T00:12:22;0.93;;;0.50;;
13708;SDS011;54933;51.908;7.730;2022-10-16T00:14:47;0.40;;;0.40;;
13708;SDS011;54933;51.908;7.730;2022-10-16T00:17:13;0.90;;;0.50;;
13708;SDS011;54933;51.908;7.730;2022-10-16T00:19:38;0.47;;;0.47;;
13708;SDS011;54933;51.908;7.730;2022-10-16T00:22:03;0.40;;;0.40;;
13708;SDS011;54933;51.908;7.730;2022-10-16T00:24:28;0.40;;;0.40;;
13708;SDS011;54933;51.908;7.730;2022-10-16T00:26:54;0.40;;;0.40;;
13708;SDS011;54933;51.908;7.730;2022-10-16T00:29:19;0.50;;;0.50;;
13708;SDS011;54933;51.908;7.730;2022-10-16T00:31:44;0.50;;;0.50;;
13708;SDS011;54933;51.908;7.730;2022-10-16T00:34:09;0.50;;;0.50;;
13708;SDS011;54933;51.908;7.730;2022-10-16T00:36:35;0.30;;;0.30;;
13708;SDS011;54933;51.908;7.730;2022-10-16T00:39:00;0.43;;;0.43;;
13708;SDS011;54933;51.908;7.730;2022-10-16T00:41:26;0.40;;;0.40;;
13708;SDS011;54933;51.908;7.730;2022-10-16T00:43:56;0.60;;;0.60;;
13708;SDS011;54933;51.908;7.730;2022-10-16T00:46:27;1.20;;;0.53;;
13708;SDS011;54933;51.908;7.730;2022-10-16T00:51:39;0.40;;;0.40;;
13708;SDS011;54933;51.908;7.730;2022-10-16T00:54:16;0.50;;;0.50;;
13708;SDS011;54933;51.908;7.730;2022-10-16T00:56:45;0.40;;;0.40;;
13708;SDS011;54933;51.908;7.730;2022-10-16T00:59:15;0.40;;;0.40;;
13708;SDS011;54933;51.908;7.730;2022-10-16T01:01:46;0.30;;;0.30;;
13708;SDS011;54933;51.908;7.730;2022-10-16T01:04:12;0.40;;;0.40;;
13708;SDS011;54933;51.908;7.730;2022-10-16T01:06:50;0.60;;;0.60;;
13708;SDS011;54933;51.908;7.730;2022-10-16T01:09:37;0.60;;;0.60;;
13708;SDS011;54933;51.908;7.730;2022-10-16T01:12:29;0.37;;;0.37;;
13708;SDS011;54933;51.908;7.730;2022-10-16T01:15:26;0.60;;;0.50;;
13708;SDS011;54933;51.908;7.730;2022-10-16T01:20:31;0.40;;;0.40;;
13708;SDS011;54933;51.908;7.730;2022-10-16T01:25:59;0.43;;;0.43;;
13708;SDS011;54933;51.908;7.730;2022-10-16T01:28:47;0.40;;;0.40;;
13708;SDS011;54933;51.908;7.730;2022-10-16T01:31:19;0.47;;;0.47;;
13708;SDS011;54933;51.908;7.730;2022-10-16T01:37:20;0.50;;;0.50;;
13708;SDS011;54933;51.908;7.730;2022-10-16T01:39:51;0.67;;;0.53;;
13708;SDS011;54933;51.908;7.730;2022-10-16T01:42:22;0.50;;;0.50;;
13708;SDS011;54933;51.908;7.730;2022-10-16T01:44:53;0.60;;;0.60;;
13708;SDS011;54933;51.908;7.730;2022-10-16T01:47:22;0.50;;;0.50;;
13708;SDS011;54933;51.908;7.730;2022-10-16T01:49:50;0.70;;;0.70;;
13708;SDS011;54933;51.908;7.730;2022-10-16T01:52:17;0.80;;;0.60;;
13708;SDS011;54933;51.908;7.730;2022-10-16T01:54:47;0.50;;;0.50;;
13708;SDS011;54933;51.908;7.730;2022-10-16T01:57:17;0.80;;;0.60;;
13708;SDS011;54933;51.908;7.730;2022-10-16T01:59:46;0.40;;;0.40;;
13708;SDS011;54933;51.908;7.730;2022-10-16T02:02:15;0.60;;;0.57;;
13708;SDS011;54933;51.908;7.730;2022-10-16T02:04:48;0.50;;;0.50;;
13708;SDS011;54933;51.908;7.730;2022-10-16T02:07:16;1.03;;;0.80;;
13708;SDS011;54933;51.908;7.730;2022-10-16T02:09:42;0.50;;;0.50;;
13708;SDS011;54933;51.908;7.730;2022-10-16T02:12:13;0.50;;;0.50;;
13708;SDS011;54933;51.908;7.730;2022-10-16T02:14:50;0.40;;;0.40;;
13708;SDS011;54933;51.908;7.730;2022-10-16T02:17:19;0.57;;;0.50;;
13708;SDS011;54933;51.908;7.730;2022-10-16T02:19:46;0.40;;;0.40;;
13708;SDS011;54933;51.908;7.730;2022-10-16T02:22:18;0.33;;;0.33;;
13708;SDS011;54933;51.908;7.730;2022-10-16T02:24:58;0.50;;;0.50;;
13708;SDS011;54933;51.908;7.730;2022-10-16T02:30:14;0.80;;;0.80;;
13708;SDS011;54933;51.908;7.730;2022-10-16T02:32:47;0.30;;;0.30;;
13708;SDS011;54933;51.908;7.730;2022-10-16T02:35:14;0.47;;;0.47;;
13708;SDS011;54933;51.908;7.730;2022-10-16T02:37:42;1.60;;;0.60;;
13708;SDS011;54933;51.908;7.730;2022-10-16T02:40:08;0.77;;;0.47;;
13708;SDS011;54933;51.908;7.730;2022-10-16T02:42:37;0.50;;;0.50;;
13708;SDS011;54933;51.908;7.730;2022-10-16T02:45:04;0.50;;;0.50;;
13708;SDS011;54933;51.908;7.730;2022-10-16T02:47:31;0.40;;;0.40;;
13708;SDS011;54933;51.908;7.730;2022-10-16T02:49:57;0.40;;;0.40;;
13708;SDS011;54933;51.908;7.730;2022-10-16T02:52:22;0.43;;;0.43;;
13708;SDS011;54933;51.908;7.730;2022-10-16T02:54:47;0.50;;;0.50;;
13708;SDS011;54933;51.908;7.730;2022-10-16T02:57:12;0.50;;;0.50;;
13708;SDS011;54933;51.908;7.730;2022-10-16T02:59:38;0.40;;;0.40;;
13708;SDS011;54933;51.908;7.730;2022-10-16T03:02:03;0.80;;;0.60;;
13708;SDS011;54933;51.908;7.730;2022-10-16T03:04:29;0.60;;;0.60;;
13708;SDS011;54933;51.908;7.730;2022-10-16T03:06:54;0.40;;;0.40;;
13708;SDS011;54933;51.908;7.730;2022-10-16T03:09:19;0.40;;;0.40;;
13708;SDS011;54933;51.908;7.730;2022-10-16T03:11:44;0.40;;;0.40;;
13708;SDS011;54933;51.908;7.730;2022-10-16T03:14:10;0.60;;;0.60;;
13708;SDS011;54933;51.908;7.730;2022-10-16T03:16:35;0.33;;;0.33;;
13708;SDS011;54933;51.908;7.730;2022-10-16T03:19:00;0.30;;;0.30;;
13708;SDS011;54933;51.908;7.730;2022-10-16T03:21:26;0.60;;;0.60;;
13708;SDS011;54933;51.908;7.730;2022-10-16T03:23:51;0.40;;;0.40;;
13708;SDS011;54933;51.908;7.730;2022-10-16T03:26:16;0.60;;;0.60;;
13708;SDS011;54933;51.908;7.730;2022-10-16T03:28:42;0.43;;;0.43;;
13708;SDS011;54933;51.908;7.730;2022-10-16T03:31:07;0.30;;;0.30;;
13708;SDS011;54933;51.908;7.730;2022-10-16T03:33:33;0.33;;;0.30;;
13708;SDS011;54933;51.908;7.730;2022-10-16T03:35:58;0.43;;;0.43;;
13708;SDS011;54933;51.908;7.730;2022-10-16T03:38:23;0.40;;;0.40;;
13708;SDS011;54933;51.908;7.730;2022-10-16T03:40:49;0.60;;;0.60;;
13708;SDS011;54933;51.908;7.730;2022-10-16T03:43:14;0.40;;;0.40;;
13708;SDS011;54933;51.908;7.730;2022-10-16T03:45:39;0.40;;;0.40;;
13708;SDS011;54933;51.908;7.730;2022-10-16T03:48:05;0.40;;;0.40;;
13708;SDS011;54933;51.908;7.730;2022-10-16T03:50:30;0.53;;;0.50;;
13708;SDS011;54933;51.908;7.730;2022-10-16T03:52:56;0.30;;;0.30;;
13708;SDS011;54933;51.908;7.730;2022-10-16T03:55:21;0.40;;;0.40;;
13708;SDS011;54933;51.908;7.730;2022-10-16T03:57:46;0.63;;;0.57;;
13708;SDS011;54933;51.908;7.730;2022-10-16T04:00:12;0.50;;;0.50;;
13708;SDS011;54933;51.908;7.730;2022-10-16T04:02:37;0.40;;;0.40;;
13708;SDS011;54933;51.908;7.730;2022-10-16T04:05:03;0.40;;;0.40;;
13708;SDS011;54933;51.908;7.730;2022-10-16T04:07:28;0.57;;;0.57;;
13708;SDS011;54933;51.908;7.730;2022-10-16T04:09:53;0.40;;;0.40;;
13708;SDS011;54933;51.908;7.730;2022-10-16T04:12:19;0.63;;;0.60;;
13708;SDS011;54933;51.908;7.730;2022-10-16T04:14:45;0.43;;;0.43;;
13708;SDS011;54933;51.908;7.730;2022-10-16T04:17:10;0.40;;;0.40;;
13708;SDS011;54933;51.908;7.730;2022-10-16T04:19:35;0.40;;;0.40;;
13708;SDS011;54933;51.908;7.730;2022-10-16T04:22:00;0.90;;;0.40;;
13708;SDS011;54933;51.908;7.730;2022-10-16T04:24:26;0.40;;;0.40;;
13708;SDS011;54933;51.908;7.730;2022-10-16T04:26:51;0.40;;;0.40;;
13708;SDS011;54933;51.908;7.730;2022-10-16T04:29:16;0.40;;;0.40;;
13708;SDS011;54933;51.908;7.730;2022-10-16T04:31:41;0.40;;;0.40;;
13708;SDS011;54933;51.908;7.730;2022-10-16T04:34:07;0.40;;;0.40;;
13708;SDS011;54933;51.908;7.730;2022-10-16T04:36:32;0.30;;;0.30;;
13708;SDS011;54933;51.908;7.730;2022-10-16T04:38:57;0.30;;;0.30;;
13708;SDS011;54933;51.908;7.730;2022-10-16T04:41:22;0.43;;;0.43;;
13708;SDS011;54933;51.908;7.730;2022-10-16T04:43:48;0.50;;;0.50;;
13708;SDS011;54933;51.908;7.730;2022-10-16T04:46:13;0.33;;;0.33;;
13708;SDS011;54933;51.908;7.730;2022-10-16T04:48:38;0.60;;;0.60;;
13708;SDS011;54933;51.908;7.730;2022-10-16T04:51:03;0.57;;;0.57;;
13708;SDS011;54933;51.908;7.730;2022-10-16T04:53:29;0.47;;;0.47;;
13708;SDS011;54933;51.908;7.730;2022-10-16T04:55:54;0.40;;;0.40;;
13708;SDS011;54933;51.908;7.730;2022-10-16T04:58:20;0.40;;;0.40;;
13708;SDS011;54933;51.908;7.730;2022-10-16T05:00:46;0.30;;;0.30;;
13708;SDS011;54933;51.908;7.730;2022-10-16T05:03:12;0.40;;;0.40;;
13708;SDS011;54933;51.908;7.730;2022-10-16T05:05:41;0.40;;;0.40;;
13708;SDS011;54933;51.908;7.730;2022-10-16T05:08:08;0.47;;;0.47;;
13708;SDS011;54933;51.908;7.730;2022-10-16T05:10:34;1.17;;;0.70;;
13708;SDS011;54933;51.908;7.730;2022-10-16T05:12:59;0.30;;;0.30;;
13708;SDS011;54933;51.908;7.730;2022-10-16T05:15:24;0.40;;;0.40;;
13708;SDS011;54933;51.908;7.730;2022-10-16T05:17:52;0.30;;;0.30;;
13708;SDS011;54933;51.908;7.730;2022-10-16T05:20:18;0.40;;;0.40;;
13708;SDS011;54933;51.908;7.730;2022-10-16T05:22:43;0.53;;;0.53;;
13708;SDS011;54933;51.908;7.730;2022-10-16T05:25:09;0.33;;;0.33;;
13708;SDS011;54933;51.908;7.730;2022-10-16T05:27:34;0.30;;;0.30;;
13708;SDS011;54933;51.908;7.730;2022-10-16T05:29:59;0.47;;;0.43;;
13708;SDS011;54933;51.908;7.730;2022-10-16T05:32:24;0.30;;;0.30;;
13708;SDS011;54933;51.908;7.730;2022-10-16T05:34:50;0.30;;;0.30;;
13708;SDS011;54933;51.908;7.730;2022-10-16T05:37:15;0.30;;;0.30;;
13708;SDS011;54933;51.908;7.730;2022-10-16T05:39:41;0.50;;;0.47;;
13708;SDS011;54933;51.908;7.730;2022-10-16T05:42:06;0.40;;;0.40;;
13708;SDS011;54933;51.908;7.730;2022-10-16T05:44:31;0.40;;;0.40;;
13708;SDS011;54933;51.908;7.730;2022-10-16T05:46:57;0.50;;;0.50;;
13708;SDS011;54933;51.908;7.730;2022-10-16T05:49:22;0.50;;;0.50;;
13708;SDS011;54933;51.908;7.730;2022-10-16T05:51:47;0.43;;;0.33;;
13708;SDS011;54933;51.908;7.730;2022-10-16T05:54:13;0.30;;;0.30;;
13708;SDS011;54933;51.908;7.730;2022-10-16T05:56:38;0.67;;;0.50;;
13708;SDS011;54933;51.908;7.730;2022-10-16T05:59:04;0.30;;;0.30;;
13708;SDS011;54933;51.908;7.730;2022-10-16T06:01:29;0.43;;;0.43;;
13708;SDS011;54933;51.908;7.730;2022-10-16T06:03:55;0.40;;;0.30;;
13708;SDS011;54933;51.908;7.730;2022-10-16T06:06:22;0.40;;;0.40;;
13708;SDS011;54933;51.908;7.730;2022-10-16T06:08:50;0.40;;;0.40;;
13708;SDS011;54933;51.908;7.730;2022-10-16T06:11:17;0.30;;;0.30;;
13708;SDS011;54933;51.908;7.730;2022-10-16T06:13:44;0.40;;;0.40;;
13708;SDS011;54933;51.908;7.730;2022-10-16T06:16:11;0.50;;;0.50;;
13708;SDS011;54933;51.908;7.730;2022-10-16T06:18:37;0.30;;;0.30;;
13708;SDS011;54933;51.908;7.730;2022-10-16T06:21:22;1.70;;;0.50;;
13708;SDS011;54933;51.908;7.730;2022-10-16T06:23:52;0.57;;;0.30;;
13708;SDS011;54933;51.908;7.730;2022-10-16T06:26:19;0.40;;;0.40;;
13708;SDS011;54933;51.908;7.730;2022-10-16T06:28:46;0.30;;;0.30;;
13708;SDS011;54933;51.908;7.730;2022-10-16T06:31:12;0.40;;;0.40;;
13708;SDS011;54933;51.908;7.730;2022-10-16T06:33:38;0.67;;;0.53;;
13708;SDS011;54933;51.908;7.730;2022-10-16T06:36:08;0.33;;;0.33;;
13708;SDS011;54933;51.908;7.730;2022-10-16T06:38:36;1.17;;;0.50;;
13708;SDS011;54933;51.908;7.730;2022-10-16T06:41:03;0.53;;;0.53;;
13708;SDS011;54933;51.908;7.730;2022-10-16T06:43:29;0.30;;;0.30;;
13708;SDS011;54933;51.908;7.730;2022-10-16T06:46:00;0.57;;;0.50;;
13708;SDS011;54933;51.908;7.730;2022-10-16T06:48:26;2.80;;;1.33;;
13708;SDS011;54933;51.908;7.730;2022-10-16T06:53:21;0.60;;;0.60;;
13708;SDS011;54933;51.908;7.730;2022-10-16T06:55:46;5.60;;;0.50;;
13708;SDS011;54933;51.908;7.730;2022-10-16T06:58:11;2.47;;;0.50;;
13708;SDS011;54933;51.908;7.730;2022-10-16T07:00:36;2.33;;;0.50;;
13708;SDS011;54933;51.908;7.730;2022-10-16T07:03:02;0.40;;;0.40;;
13708;SDS011;54933;51.908;7.730;2022-10-16T07:05:27;2.53;;;0.70;;
13708;SDS011;54933;51.908;7.730;2022-10-16T07:07:52;0.70;;;0.70;;
13708;SDS011;54933;51.908;7.730;2022-10-16T07:10:17;0.60;;;0.57;;
13708;SDS011;54933;51.908;7.730;2022-10-16T07:12:43;0.50;;;0.50;;
13708;SDS011;54933;51.908;7.730;2022-10-16T07:15:10;3.10;;;0.50;;
13708;SDS011;54933;51.908;7.730;2022-10-16T07:17:35;0.87;;;0.70;;
13708;SDS011;54933;51.908;7.730;2022-10-16T07:20:01;0.57;;;0.40;;
13708;SDS011;54933;51.908;7.730;2022-10-16T07:22:27;8.07;;;0.50;;
13708;SDS011;54933;51.908;7.730;2022-10-16T07:24:53;0.50;;;0.50;;
13708;SDS011;54933;51.908;7.730;2022-10-16T07:27:18;0.97;;;0.50;;
13708;SDS011;54933;51.908;7.730;2022-10-16T07:29:44;0.50;;;0.50;;
13708;SDS011;54933;51.908;7.730;2022-10-16T07:32:09;5.60;;;0.90;;
13708;SDS011;54933;51.908;7.730;2022-10-16T07:34:34;3.20;;;0.60;;
13708;SDS011;54933;51.908;7.730;2022-10-16T07:36:59;5.93;;;0.83;;
13708;SDS011;54933;51.908;7.730;2022-10-16T07:39:25;1.83;;;0.90;;
13708;SDS011;54933;51.908;7.730;2022-10-16T07:41:50;3.97;;;1.10;;
13708;SDS011;54933;51.908;7.730;2022-10-16T07:44:15;3.03;;;0.67;;
13708;SDS011;54933;51.908;7.730;2022-10-16T07:46:40;1.37;;;0.60;;
13708;SDS011;54933;51.908;7.730;2022-10-16T07:49:06;3.77;;;0.87;;
13708;SDS011;54933;51.908;7.730;2022-10-16T07:51:31;1.77;;;0.53;;
13708;SDS011;54933;51.908;7.730;2022-10-16T07:53:57;4.53;;;0.70;;
13708;SDS011;54933;51.908;7.730;2022-10-16T07:56:22;2.40;;;0.70;;
13708;SDS011;54933;51.908;7.730;2022-10-16T07:58:47;2.73;;;0.70;;
13708;SDS011;54933;51.908;7.730;2022-10-16T08:01:15;18.73;;;0.93;;
13708;SDS011;54933;51.908;7.730;2022-10-16T08:03:44;18.00;;;1.47;;
13708;SDS011;54933;51.908;7.730;2022-10-16T08:06:11;21.80;;;1.43;;
13708;SDS011;54933;51.908;7.730;2022-10-16T08:08:36;19.57;;;1.83;;
13708;SDS011;54933;51.908;7.730;2022-10-16T08:11:02;11.50;;;1.13;;
13708;SDS011;54933;51.908;7.730;2022-10-16T08:13:28;77.90;;;3.57;;
13708;SDS011;54933;51.908;7.730;2022-10-16T08:15:54;28.50;;;1.77;;
13708;SDS011;54933;51.908;7.730;2022-10-16T08:18:20;94.47;;;7.20;;
13708;SDS011;54933;51.908;7.730;2022-10-16T08:20:45;53.63;;;3.93;;
13708;SDS011;54933;51.908;7.730;2022-10-16T08:23:11;28.43;;;3.23;;
13708;SDS011;54933;51.908;7.730;2022-10-16T08:25:38;45.17;;;3.80;;
13708;SDS011;54933;51.908;7.730;2022-10-16T08:28:03;31.80;;;2.80;;
13708;SDS011;54933;51.908;7.730;2022-10-16T08:30:30;41.07;;;2.50;;
13708;SDS011;54933;51.908;7.730;2022-10-16T08:32:55;31.83;;;2.70;;
13708;SDS011;54933;51.908;7.730;2022-10-16T08:35:21;29.93;;;1.90;;
13708;SDS011;54933;51.908;7.730;2022-10-16T08:37:46;18.07;;;1.80;;
13708;SDS011;54933;51.908;7.730;2022-10-16T08:40:19;24.50;;;2.37;;
13708;SDS011;54933;51.908;7.730;2022-10-16T08:45:41;18.67;;;2.20;;
13708;SDS011;54933;51.908;7.730;2022-10-16T08:48:34;9.00;;;1.73;;
13708;SDS011;54933;51.908;7.730;2022-10-16T08:51:08;18.37;;;1.87;;
13708;SDS011;54933;51.908;7.730;2022-10-16T08:53:40;19.67;;;2.00;;
13708;SDS011;54933;51.908;7.730;2022-10-16T08:56:09;24.73;;;1.87;;
13708;SDS011;54933;51.908;7.730;2022-10-16T08:58:34;19.57;;;1.77;;
13708;SDS011;54933;51.908;7.730;2022-10-16T09:01:00;11.03;;;1.40;;
13708;SDS011;54933;51.908;7.730;2022-10-16T09:12:10;22.63;;;2.83;;
13708;SDS011;54933;51.908;7.730;2022-10-16T09:17:52;124.93;;;9.67;;
13708;SDS011;54933;51.908;7.730;2022-10-16T09:22:55;444.40;;;31.30;;
13708;SDS011;54933;51.908;7.730;2022-10-16T09:25:34;265.90;;;18.30;;
13708;SDS011;54933;51.908;7.730;2022-10-16T09:28:00;197.07;;;15.23;;
13708;SDS011;54933;51.908;7.730;2022-10-16T09:30:26;247.17;;;15.07;;
13708;SDS011;54933;51.908;7.730;2022-10-16T09:32:54;204.60;;;16.43;;
13708;SDS011;54933;51.908;7.730;2022-10-16T09:35:32;188.47;;;14.17;;
13708;SDS011;54933;51.908;7.730;2022-10-16T09:38:01;140.90;;;10.50;;
13708;SDS011;54933;51.908;7.730;2022-10-16T09:40:30;155.73;;;10.63;;
13708;SDS011;54933;51.908;7.730;2022-10-16T09:43:22;127.03;;;11.60;;
13708;SDS011;54933;51.908;7.730;2022-10-16T09:45:55;118.53;;;10.87;;
13708;SDS011;54933;51.908;7.730;2022-10-16T09:48:21;116.80;;;7.80;;
13708;SDS011;54933;51.908;7.730;2022-10-16T09:50:57;133.03;;;9.23;;
13708;SDS011;54933;51.908;7.730;2022-10-16T09:53:41;68.97;;;6.47;;
13708;SDS011;54933;51.908;7.730;2022-10-16T09:56:09;91.37;;;6.77;;
13708;SDS011;54933;51.908;7.730;2022-10-16T09:58:49;58.63;;;5.30;;
13708;SDS011;54933;51.908;7.730;2022-10-16T10:01:17;92.40;;;7.20;;
13708;SDS011;54933;51.908;7.730;2022-10-16T10:03:42;70.23;;;5.97;;
13708;SDS011;54933;51.908;7.730;2022-10-16T10:06:20;12.83;;;1.70;;
13708;SDS011;54933;51.908;7.730;2022-10-16T10:08:53;40.47;;;3.30;;
13708;SDS011;54933;51.908;7.730;2022-10-16T10:11:36;16.97;;;2.20;;
13708;SDS011;54933;51.908;7.730;2022-10-16T10:14:03;12.03;;;1.83;;
13708;SDS011;54933;51.908;7.730;2022-10-16T10:16:30;41.40;;;3.57;;
13708;SDS011;54933;51.908;7.730;2022-10-16T10:18:59;33.63;;;3.23;;
13708;SDS011;54933;51.908;7.730;2022-10-16T10:21:25;492.47;;;34.10;;
13708;SDS011;54933;51.908;7.730;2022-10-16T10:23:56;219.80;;;16.40;;
13708;SDS011;54933;51.908;7.730;2022-10-16T10:26:23;237.53;;;17.27;;
13708;SDS011;54933;51.908;7.730;2022-10-16T10:32:26;136.80;;;11.50;;
13708;SDS011;54933;51.908;7.730;2022-10-16T10:43:19;115.73;;;8.57;;
13708;SDS011;54933;51.908;7.730;2022-10-16T10:45:46;108.07;;;10.20;;
13708;SDS011;54933;51.908;7.730;2022-10-16T10:48:18;96.00;;;7.57;;
13708;SDS011;54933;51.908;7.730;2022-10-16T10:53:55;76.57;;;7.63;;
13708;SDS011;54933;51.908;7.730;2022-10-16T10:59:16;69.37;;;5.73;;
13708;SDS011;54933;51.908;7.730;2022-10-16T11:01:54;65.63;;;5.30;;
13708;SDS011;54933;51.908;7.730;2022-10-16T11:04:39;52.37;;;4.80;;
13708;SDS011;54933;51.908;7.730;2022-10-16T11:07:15;62.07;;;6.00;;
13708;SDS011;54933;51.908;7.730;2022-10-16T11:09:49;55.17;;;4.50;;
13708;SDS011;54933;51.908;7.730;2022-10-16T11:12:20;45.93;;;5.23;;
13708;SDS011;54933;51.908;7.730;2022-10-16T11:14:56;41.33;;;4.80;;
13708;SDS011;54933;51.908;7.730;2022-10-16T11:17:38;26.97;;;3.60;;
13708;SDS011;54933;51.908;7.730;2022-10-16T11:22:54;14.77;;;2.30;;
13708;SDS011;54933;51.908;7.730;2022-10-16T11:25:39;24.17;;;2.37;;
13708;SDS011;54933;51.908;7.730;2022-10-16T11:28:08;12.73;;;2.20;;
13708;SDS011;54933;51.908;7.730;2022-10-16T11:30:45;12.70;;;1.93;;
13708;SDS011;54933;51.908;7.730;2022-10-16T11:38:29;10.70;;;1.47;;
13708;SDS011;54933;51.908;7.730;2022-10-16T11:41:18;11.63;;;1.37;;
13708;SDS011;54933;51.908;7.730;2022-10-16T11:43:52;13.40;;;1.73;;
13708;SDS011;54933;51.908;7.730;2022-10-16T11:46:27;17.17;;;2.17;;
13708;SDS011;54933;51.908;7.730;2022-10-16T11:54:24;8.00;;;1.50;;
13708;SDS011;54933;51.908;7.730;2022-10-16T11:56:57;8.53;;;1.60;;
13708;SDS011;54933;51.908;7.730;2022-10-16T12:02:20;12.80;;;1.77;;
13708;SDS011;54933;51.908;7.730;2022-10-16T12:05:03;12.83;;;1.70;;
13708;SDS011;54933;51.908;7.730;2022-10-16T12:07:49;8.07;;;1.63;;
13708;SDS011;54933;51.908;7.730;2022-10-16T12:10:23;13.63;;;1.77;;
13708;SDS011;54933;51.908;7.730;2022-10-16T12:12:52;5.87;;;1.00;;
13708;SDS011;54933;51.908;7.730;2022-10-16T12:17:44;6.83;;;1.50;;
13708;SDS011;54933;51.908;7.730;2022-10-16T12:22:40;2.97;;;1.40;;
13708;SDS011;54933;51.908;7.730;2022-10-16T12:28:01;9.43;;;1.73;;
13708;SDS011;54933;51.908;7.730;2022-10-16T12:30:31;5.03;;;1.27;;
13708;SDS011;54933;51.908;7.730;2022-10-16T12:33:03;7.13;;;1.07;;
13708;SDS011;54933;51.908;7.730;2022-10-16T12:35:34;3.03;;;0.80;;
13708;SDS011;54933;51.908;7.730;2022-10-16T12:38:27;4.67;;;2.30;;
13708;SDS011;54933;51.908;7.730;2022-10-16T12:41:02;5.13;;;0.90;;
13708;SDS011;54933;51.908;7.730;2022-10-16T12:43:45;9.40;;;1.63;;
13708;SDS011;54933;51.908;7.730;2022-10-16T12:48:37;12.07;;;1.40;;
13708;SDS011;54933;51.908;7.730;2022-10-16T12:51:12;15.50;;;2.33;;
13708;SDS011;54933;51.908;7.730;2022-10-16T12:54:04;11.03;;;2.00;;
13708;SDS011;54933;51.908;7.730;2022-10-16T12:59:49;22.77;;;2.33;;
13708;SDS011;54933;51.908;7.730;2022-10-16T13:02:22;15.13;;;1.57;;
13708;SDS011;54933;51.908;7.730;2022-10-16T13:07:44;12.47;;;1.40;;
13708;SDS011;54933;51.908;7.730;2022-10-16T13:10:40;7.33;;;1.07;;
13708;SDS011;54933;51.908;7.730;2022-10-16T13:22:03;8.47;;;1.20;;
13708;SDS011;54933;51.908;7.730;2022-10-16T13:24:42;6.37;;;1.10;;
13708;SDS011;54933;51.908;7.730;2022-10-16T13:30:00;7.50;;;1.23;;
13708;SDS011;54933;51.908;7.730;2022-10-16T13:32:35;13.73;;;1.50;;
13708;SDS011;54933;51.908;7.730;2022-10-16T13:35:01;4.07;;;1.30;;
13708;SDS011;54933;51.908;7.730;2022-10-16T13:37:26;2.63;;;1.10;;
13708;SDS011;54933;51.908;7.730;2022-10-16T13:40:01;9.23;;;0.93;;
13708;SDS011;54933;51.908;7.730;2022-10-16T13:42:32;10.60;;;1.83;;
13708;SDS011;54933;51.908;7.730;2022-10-16T13:44:58;9.97;;;1.07;;
13708;SDS011;54933;51.908;7.730;2022-10-16T13:47:24;3.57;;;1.40;;
13708;SDS011;54933;51.908;7.730;2022-10-16T13:50:01;11.97;;;1.13;;
13708;SDS011;54933;51.908;7.730;2022-10-16T13:52:29;5.03;;;0.90;;
13708;SDS011;54933;51.908;7.730;2022-10-16T13:54:55;2.37;;;0.77;;
13708;SDS011;54933;51.908;7.730;2022-10-16T13:57:21;6.23;;;1.10;;
13708;SDS011;54933;51.908;7.730;2022-10-16T13:59:48;5.40;;;1.10;;
13708;SDS011;54933;51.908;7.730;2022-10-16T14:02:19;4.07;;;1.53;;
13708;SDS011;54933;51.908;7.730;2022-10-16T14:04:50;4.17;;;0.90;;
13708;SDS011;54933;51.908;7.730;2022-10-16T14:07:20;2.77;;;1.17;;
13708;SDS011;54933;51.908;7.730;2022-10-16T14:09:50;5.30;;;1.03;;
13708;SDS011;54933;51.908;7.730;2022-10-16T14:12:17;4.53;;;0.83;;
13708;SDS011;54933;51.908;7.730;2022-10-16T14:14:43;4.87;;;0.90;;
13708;SDS011;54933;51.908;7.730;2022-10-16T14:17:14;4.87;;;1.10;;
13708;SDS011;54933;51.908;7.730;2022-10-16T14:19:46;4.93;;;0.90;;
13708;SDS011;54933;51.908;7.730;2022-10-16T14:22:33;1.43;;;0.67;;
13708;SDS011;54933;51.908;7.730;2022-10-16T14:24:58;1.67;;;0.77;;
13708;SDS011;54933;51.908;7.730;2022-10-16T14:27:29;1.53;;;0.60;;
13708;SDS011;54933;51.908;7.730;2022-10-16T14:30:08;1.97;;;0.80;;
13708;SDS011;54933;51.908;7.730;2022-10-16T14:32:36;4.37;;;0.80;;
13708;SDS011;54933;51.908;7.730;2022-10-16T14:35:01;5.10;;;1.00;;
13708;SDS011;54933;51.908;7.730;2022-10-16T14:37:27;5.07;;;1.00;;
13708;SDS011;54933;51.908;7.730;2022-10-16T14:39:54;3.03;;;0.97;;
13708;SDS011;54933;51.908;7.730;2022-10-16T14:42:21;3.50;;;0.80;;
13708;SDS011;54933;51.908;7.730;2022-10-16T14:44:50;3.10;;;0.73;;
13708;SDS011;54933;51.908;7.730;2022-10-16T14:47:18;2.50;;;0.80;;
13708;SDS011;54933;51.908;7.730;2022-10-16T14:49:49;2.53;;;1.40;;
13708;SDS011;54933;51.908;7.730;2022-10-16T14:52:14;3.67;;;1.20;;
13708;SDS011;54933;51.908;7.730;2022-10-16T14:54:40;1.80;;;0.80;;
13708;SDS011;54933;51.908;7.730;2022-10-16T14:57:06;4.47;;;0.67;;
13708;SDS011;54933;51.908;7.730;2022-10-16T14:59:42;4.80;;;1.20;;
13708;SDS011;54933;51.908;7.730;2022-10-16T15:02:21;1.30;;;0.80;;
13708;SDS011;54933;51.908;7.730;2022-10-16T15:05:21;1.63;;;0.97;;
13708;SDS011;54933;51.908;7.730;2022-10-16T15:07:46;2.70;;;0.80;;
13708;SDS011;54933;51.908;7.730;2022-10-16T15:10:12;1.33;;;0.73;;
13708;SDS011;54933;51.908;7.730;2022-10-16T15:12:38;1.40;;;0.50;;
13708;SDS011;54933;51.908;7.730;2022-10-16T15:15:15;1.60;;;0.60;;
13708;SDS011;54933;51.908;7.730;2022-10-16T15:17:47;1.10;;;0.80;;
13708;SDS011;54933;51.908;7.730;2022-10-16T15:20:13;1.97;;;0.70;;
13708;SDS011;54933;51.908;7.730;2022-10-16T15:22:38;2.23;;;0.83;;
13708;SDS011;54933;51.908;7.730;2022-10-16T15:25:27;2.63;;;0.70;;
13708;SDS011;54933;51.908;7.730;2022-10-16T15:27:54;1.90;;;0.80;;
13708;SDS011;54933;51.908;7.730;2022-10-16T15:30:20;1.63;;;0.60;;
13708;SDS011;54933;51.908;7.730;2022-10-16T15:32:45;3.10;;;0.67;;
13708;SDS011;54933;51.908;7.730;2022-10-16T15:35:11;1.80;;;0.63;;
13708;SDS011;54933;51.908;7.730;2022-10-16T15:37:36;1.63;;;0.77;;
13708;SDS011;54933;51.908;7.730;2022-10-16T15:40:01;0.80;;;0.50;;
13708;SDS011;54933;51.908;7.730;2022-10-16T15:42:27;1.43;;;0.90;;
13708;SDS011;54933;51.908;7.730;2022-10-16T15:44:52;3.80;;;0.63;;
13708;SDS011;54933;51.908;7.730;2022-10-16T15:47:18;1.20;;;0.80;;
13708;SDS011;54933;51.908;7.730;2022-10-16T15:49:43;0.67;;;0.63;;
13708;SDS011;54933;51.908;7.730;2022-10-16T15:52:08;0.63;;;0.43;;
13708;SDS011;54933;51.908;7.730;2022-10-16T15:54:33;1.27;;;0.43;;
13708;SDS011;54933;51.908;7.730;2022-10-16T15:56:59;1.10;;;0.77;;
13708;SDS011;54933;51.908;7.730;2022-10-16T15:59:24;0.43;;;0.43;;
13708;SDS011;54933;51.908;7.730;2022-10-16T16:01:49;2.07;;;0.70;;
13708;SDS011;54933;51.908;7.730;2022-10-16T16:04:14;4.43;;;0.70;;
13708;SDS011;54933;51.908;7.730;2022-10-16T16:06:41;3.57;;;0.80;;
13708;SDS011;54933;51.908;7.730;2022-10-16T16:09:09;2.07;;;0.70;;
13708;SDS011;54933;51.908;7.730;2022-10-16T16:11:35;0.93;;;0.60;;
13708;SDS011;54933;51.908;7.730;2022-10-16T16:14:03;3.40;;;0.83;;
13708;SDS011;54933;51.908;7.730;2022-10-16T16:16:32;2.30;;;0.80;;
13708;SDS011;54933;51.908;7.730;2022-10-16T16:19:02;4.20;;;0.60;;
13708;SDS011;54933;51.908;7.730;2022-10-16T16:21:27;7.40;;;0.90;;
13708;SDS011;54933;51.908;7.730;2022-10-16T16:23:53;1.60;;;0.70;;
13708;SDS011;54933;51.908;7.730;2022-10-16T16:26:25;0.70;;;0.70;;
13708;SDS011;54933;51.908;7.730;2022-10-16T16:29:00;1.77;;;0.63;;